Time;durP1;ratioP1;P1;durP2;ratioP2;P2;SDS_P1;SDS_P2;PMS_P1;PMS_P2;Temp;Humidity;BMP_temperature;BMP_pressure;BME280_temperature;BME280_humidity;BME280_pressure;Samples;Min_cycle;Max_cycle;Signal;HPM_P1;HPM_P2
2023/04/27 00:01:19;;;;;;;6.07;3.20;;;;;;;;;;4998931;28;20037;-96
2023/04/27 00:03:48;;;;;;;11.90;3.30;;;;;;;;;;4998294;28;20093;-95
2023/04/27 00:06:31;;;;;;;6.30;2.45;;;;;;;;;;4998774;28;20064;-96
2023/04/27 00:08:58;;;;;;;9.63;3.00;;;;;;;;;;4998744;28;20030;-96
2023/04/27 00:11:27;;;;;;;6.30;2.38;;;;;;;;;;4998702;28;20042;-94
2023/04/27 00:14:01;;;;;;;6.35;2.47;;;;;;;;;;4998467;28;20434;-96
2023/04/27 00:16:27;;;;;;;8.30;2.20;;;;;;;;;;4999752;28;20491;-95
2023/04/27 00:19:01;;;;;;;7.75;3.10;;;;;;;;;;4998520;28;20026;-96
2023/04/27 00:21:30;;;;;;;7.18;2.58;;;;;;;;;;4998520;28;20018;-95
2023/04/27 00:23:59;;;;;;;11.63;3.05;;;;;;;;;;4998762;28;20052;-95
2023/04/27 00:26:27;;;;;;;7.65;2.95;;;;;;;;;;4998606;28;20026;-95
2023/04/27 00:29:01;;;;;;;10.98;2.80;;;;;;;;;;4998465;28;20018;-96
2023/04/27 00:31:27;;;;;;;6.82;2.67;;;;;;;;;;4998505;28;20033;-95
2023/04/27 00:33:56;;;;;;;8.05;2.72;;;;;;;;;;4998758;28;20049;-94
2023/04/27 00:36:43;;;;;;;;;;;;;;;;;;;;;
2023/04/27 00:39:09;;;;;;;6.75;2.60;;;;;;;;;;5016098;28;20037;-96
2023/04/27 00:41:39;;;;;;;6.65;2.47;;;;;;;;;;4998893;28;20400;-95
2023/04/27 00:44:08;;;;;;;6.50;2.25;;;;;;;;;;4998091;28;20384;-96
2023/04/27 00:46:36;;;;;;;6.60;3.05;;;;;;;;;;4998263;28;20080;-95
2023/04/27 00:49:09;;;;;;;5.78;2.63;;;;;;;;;;4998342;28;20029;-96
2023/04/27 00:51:38;;;;;;;11.90;3.28;;;;;;;;;;4998004;28;20389;-96
2023/04/27 00:54:19;;;;;;;11.75;3.58;;;;;;;;;;4997639;28;20072;-95
2023/04/27 00:56:50;;;;;;;11.40;2.65;;;;;;;;;;4997585;28;20026;-95
2023/04/27 00:59:20;;;;;;;4.35;2.17;;;;;;;;;;4998559;28;20076;-95
2023/04/27 01:01:49;;;;;;;4.60;2.35;;;;;;;;;;4997892;28;20109;-95
2023/04/27 01:04:18;;;;;;;8.05;2.42;;;;;;;;;;4997732;28;20048;-95
2023/04/27 01:06:48;;;;;;;10.75;2.88;;;;;;;;;;4997682;28;20033;-95
2023/04/27 01:09:21;;;;;;;4.78;2.50;;;;;;;;;;4997865;28;20029;-95
2023/04/27 01:11:48;;;;;;;4.75;2.47;;;;;;;;;;4998855;28;20018;-95
2023/04/27 01:14:24;;;;;;;;;;;;;;;;;;;;;
2023/04/27 01:16:51;;;;;;;8.38;2.60;;;;;;;;;;5015104;28;20040;-95
2023/04/27 01:19:21;;;;;;;6.00;2.47;;;;;;;;;;4997601;28;20030;-95
2023/04/27 01:21:50;;;;;;;5.70;2.10;;;;;;;;;;4997866;28;20080;-95
2023/04/27 01:24:20;;;;;;;4.68;2.10;;;;;;;;;;4998342;28;20407;-95
2023/04/27 01:26:57;;;;;;;;;;;;;;;;;;;;;
2023/04/27 01:29:30;;;;;;;7.00;2.05;;;;;;;;;;5015109;28;20025;-95
2023/04/27 01:31:59;;;;;;;6.53;2.30;;;;;;;;;;4998102;28;20026;-96
2023/04/27 01:34:28;;;;;;;9.68;2.42;;;;;;;;;;4997470;28;20026;-95
2023/04/27 01:36:57;;;;;;;9.07;2.38;;;;;;;;;;4997596;28;20030;-95
2023/04/27 01:42:18;;;;;;;7.35;2.30;;;;;;;;;;5008043;28;20500;-95
2023/04/27 01:44:59;;;;;;;7.78;2.60;;;;;;;;;;4997928;28;20089;-96
2023/04/27 01:47:28;;;;;;;6.72;2.95;;;;;;;;;;4997250;28;20032;-95
2023/04/27 01:50:02;;;;;;;6.85;3.00;;;;;;;;;;4997354;28;20018;-95
2023/04/27 01:52:28;;;;;;;10.57;3.92;;;;;;;;;;4997369;28;20049;-94
2023/04/27 01:55:09;;;;;;;4.68;2.58;;;;;;;;;;4997707;28;20028;-95
2023/04/27 01:57:38;;;;;;;8.30;3.00;;;;;;;;;;4997404;28;20026;-95
2023/04/27 02:00:17;;;;;;;8.45;2.50;;;;;;;;;;4997663;28;20109;-96
2023/04/27 02:02:52;;;;;;;10.45;3.05;;;;;;;;;;4997680;28;20033;-95
2023/04/27 02:05:18;;;;;;;5.85;3.15;;;;;;;;;;4997527;28;20116;-95
2023/04/27 02:08:01;;;;;;;7.95;2.42;;;;;;;;;;4998079;28;20026;-95
2023/04/27 02:10:29;;;;;;;7.47;2.95;;;;;;;;;;4997064;28;20071;-96
2023/04/27 02:12:58;;;;;;;9.57;3.30;;;;;;;;;;4996923;28;20084;-94
2023/04/27 02:15:39;;;;;;;10.27;3.25;;;;;;;;;;4997495;28;20026;-96
2023/04/27 02:18:08;;;;;;;8.48;2.70;;;;;;;;;;4997000;28;20388;-95
2023/04/27 02:20:37;;;;;;;10.93;3.13;;;;;;;;;;4997318;28;20034;-95
2023/04/27 02:23:27;;;;;;;5.45;2.95;;;;;;;;;;4996343;28;20042;-95
2023/04/27 02:26:20;;;;;;;7.13;2.95;;;;;;;;;;4999400;28;20030;-95
2023/04/27 02:28:50;;;;;;;6.50;2.70;;;;;;;;;;5001754;28;20034;-95
2023/04/27 02:31:20;;;;;;;13.40;3.15;;;;;;;;;;5003228;28;20030;-96
2023/04/27 02:33:49;;;;;;;10.48;2.90;;;;;;;;;;5000609;28;20177;-96
2023/04/27 02:36:18;;;;;;;14.40;2.92;;;;;;;;;;5002298;28;20026;-94
2023/04/27 02:38:51;;;;;;;8.27;2.50;;;;;;;;;;5002634;28;20472;-95
2023/04/27 02:41:18;;;;;;;7.10;2.60;;;;;;;;;;5000541;28;20029;-95
2023/04/27 02:43:52;;;;;;;8.32;2.90;;;;;;;;;;5000415;28;20052;-96
2023/04/27 02:46:20;;;;;;;9.75;3.22;;;;;;;;;;5000576;28;20032;-95
2023/04/27 02:48:49;;;;;;;11.52;3.22;;;;;;;;;;5001336;28;20026;-95
2023/04/27 02:51:31;;;;;;;8.55;3.20;;;;;;;;;;5001274;28;20030;-96
2023/04/27 02:54:10;;;;;;;7.47;3.05;;;;;;;;;;5000200;28;20050;-95
2023/04/27 02:56:39;;;;;;;9.05;3.58;;;;;;;;;;5000221;28;20021;-95
2023/04/27 02:59:20;;;;;;;9.90;2.80;;;;;;;;;;5000244;28;20416;-95
2023/04/27 03:01:49;;;;;;;7.97;3.63;;;;;;;;;;5000438;28;20353;-95
2023/04/27 03:04:31;;;;;;;9.88;3.53;;;;;;;;;;5000181;28;20022;-96
2023/04/27 03:07:00;;;;;;;13.65;2.92;;;;;;;;;;5000278;28;20045;-95
2023/04/27 03:09:29;;;;;;;10.10;3.33;;;;;;;;;;5000303;28;20029;-96
2023/04/27 03:11:58;;;;;;;7.03;2.95;;;;;;;;;;5000081;28;20026;-95
2023/04/27 03:14:39;;;;;;;8.65;2.80;;;;;;;;;;5000136;28;20026;-96
2023/04/27 03:17:08;;;;;;;7.13;3.38;;;;;;;;;;5000355;28;20032;-95
2023/04/27 03:19:51;;;;;;;5.68;2.70;;;;;;;;;;4999634;28;20121;-95
2023/04/27 03:22:40;;;;;;;5.47;2.53;;;;;;;;;;4999986;28;20083;-96
2023/04/27 03:25:08;;;;;;;7.22;2.80;;;;;;;;;;5000003;28;20068;-95
2023/04/27 03:27:49;;;;;;;5.28;2.65;;;;;;;;;;4999957;28;20109;-95
2023/04/27 03:30:18;;;;;;;7.35;2.40;;;;;;;;;;4999857;28;20017;-95
2023/04/27 03:32:59;;;;;;;12.25;2.45;;;;;;;;;;5000072;28;20538;-95
2023/04/27 03:35:28;;;;;;;6.35;2.80;;;;;;;;;;5000236;28;20026;-96
2023/04/27 03:37:59;;;;;;;7.80;2.67;;;;;;;;;;4999420;28;20033;-95
2023/04/27 03:40:29;;;;;;;6.70;2.70;;;;;;;;;;4999552;28;20509;-95
2023/04/27 03:43:09;;;;;;;8.32;2.45;;;;;;;;;;4999952;28;20503;-95
2023/04/27 03:45:38;;;;;;;5.55;2.28;;;;;;;;;;4999477;28;20034;-95
2023/04/27 03:48:07;;;;;;;7.35;3.00;;;;;;;;;;4999284;28;20026;-95
2023/04/27 03:53:20;;;;;;;7.45;2.53;;;;;;;;;;5009117;28;20488;-95
2023/04/27 03:55:48;;;;;;;5.53;1.80;;;;;;;;;;4999681;28;20030;-96
2023/04/27 03:58:31;;;;;;;7.07;2.80;;;;;;;;;;4999186;28;20037;-95
2023/04/27 04:01:00;;;;;;;6.13;2.15;;;;;;;;;;4999145;28;20030;-95
2023/04/27 04:03:29;;;;;;;3.55;1.90;;;;;;;;;;4998871;28;20045;-95
2023/04/27 04:05:58;;;;;;;6.07;2.13;;;;;;;;;;4999129;28;20030;-96
2023/04/27 04:08:31;;;;;;;8.82;2.22;;;;;;;;;;4998720;28;20022;-94
2023/04/27 04:11:00;;;;;;;3.90;2.08;;;;;;;;;;4999489;28;20112;-95
2023/04/27 04:13:32;;;;;;;5.75;2.10;;;;;;;;;;5000016;28;20029;-95
2023/04/27 04:19:19;;;;;;;3.97;2.10;;;;;;;;;;5003487;28;20038;-96
2023/04/27 04:21:48;;;;;;;5.40;2.30;;;;;;;;;;4999957;28;20030;-95
2023/04/27 04:24:22;;;;;;;4.95;1.80;;;;;;;;;;4999531;28;20384;-95
2023/04/27 04:26:50;;;;;;;5.13;2.40;;;;;;;;;;5000115;28;20026;-95
2023/04/27 04:29:20;;;;;;;5.50;2.33;;;;;;;;;;4999793;28;20531;-95
2023/04/27 04:31:50;;;;;;;4.63;2.00;;;;;;;;;;4999988;28;20013;-95
2023/04/27 04:34:19;;;;;;;4.40;1.70;;;;;;;;;;5000360;28;20108;-95
2023/04/27 04:37:00;;;;;;;3.95;1.70;;;;;;;;;;4999776;28;20353;-95
2023/04/27 04:39:30;;;;;;;4.68;2.13;;;;;;;;;;5000428;28;20029;-96
2023/04/27 04:41:59;;;;;;;9.73;2.20;;;;;;;;;;4998888;28;20112;-94
2023/04/27 04:44:28;;;;;;;4.25;1.90;;;;;;;;;;4999139;28;20018;-94
2023/04/27 04:47:01;;;;;;;13.20;2.28;;;;;;;;;;4999936;28;20026;-94
2023/04/27 04:49:28;;;;;;;4.82;2.10;;;;;;;;;;4997932;28;20121;-96
2023/04/27 04:52:10;;;;;;;4.45;1.95;;;;;;;;;;4997853;28;20425;-95
2023/04/27 04:54:39;;;;;;;;;;;;;;;;;;4999386;28;20066;-95
2023/04/27 04:57:21;;;;;;;6.93;3.50;;;;;;;;;;4998094;28;19906;-95
2023/04/27 04:59:50;;;;;;;9.88;3.40;;;;;;;;;;4999070;28;20026;-96
2023/04/27 05:02:19;;;;;;;10.23;3.47;;;;;;;;;;4999027;28;20030;-94
2023/04/27 05:05:00;;;;;;;8.00;3.65;;;;;;;;;;4999212;28;20029;-95
2023/04/27 05:07:29;;;;;;;12.38;3.15;;;;;;;;;;4999719;28;20022;-96
2023/04/27 05:10:12;;;;;;;8.52;3.67;;;;;;;;;;4999473;28;20053;-94
2023/04/27 05:12:38;;;;;;;10.07;3.60;;;;;;;;;;4998308;28;20031;-95
2023/04/27 05:15:12;;;;;;;6.90;3.20;;;;;;;;;;4998019;28;20033;-95
2023/04/27 05:17:38;;;;;;;16.25;3.88;;;;;;;;;;4998754;28;20026;-96
2023/04/27 05:20:27;;;;;;;12.80;3.08;;;;;;;;;;4997942;28;20029;-95
2023/04/27 05:23:01;;;;;;;18.13;4.07;;;;;;;;;;4998224;28;20053;-96
2023/04/27 05:25:31;;;;;;;9.45;3.13;;;;;;;;;;4997615;28;20025;-96
2023/04/27 05:28:07;;;;;;;8.07;2.63;;;;;;;;;;4997492;28;20022;-95
2023/04/27 05:31:09;;;;;;;9.55;3.40;;;;;;;;;;4998195;28;20037;-96
2023/04/27 05:33:50;;;;;;;8.25;3.35;;;;;;;;;;4997424;28;20022;-95
2023/04/27 05:36:38;;;;;;;11.10;3.95;;;;;;;;;;4997723;28;20018;-95
2023/04/27 05:39:10;;;;;;;6.05;3.42;;;;;;;;;;4997463;28;20022;-95
2023/04/27 05:41:39;;;;;;;6.40;3.50;;;;;;;;;;4997258;28;20018;-95
2023/04/27 05:44:28;;;;;;;11.13;3.72;;;;;;;;;;4997565;28;20022;-94
2023/04/27 05:47:02;;;;;;;9.05;3.55;;;;;;;;;;4991479;28;20424;-94
2023/04/27 05:49:28;;;;;;;15.07;4.60;;;;;;;;;;4997559;28;20022;-94
2023/04/27 05:51:55;;;;;;;17.02;6.25;;;;;;;;;;4997160;28;20018;-94
2023/04/27 05:54:21;;;;;;;13.65;6.22;;;;;;;;;;4998259;28;20064;-94
2023/04/27 05:56:50;;;;;;;8.95;4.88;;;;;;;;;;4997056;28;20030;-94
2023/04/27 05:59:19;;;;;;;12.10;5.35;;;;;;;;;;4997128;28;20049;-96
2023/04/27 06:01:58;;;;;;;14.70;5.00;;;;;;;;;;5000079;28;20113;-95
2023/04/27 06:04:31;;;;;;;8.45;3.80;;;;;;;;;;5000920;28;20113;-95
2023/04/27 06:07:02;;;;;;;12.13;4.78;;;;;;;;;;5001215;28;20033;-95
2023/04/27 06:09:30;;;;;;;13.63;4.28;;;;;;;;;;5000939;28;20022;-94
2023/04/27 06:11:59;;;;;;;12.90;4.72;;;;;;;;;;5001033;28;20026;-94
2023/04/27 06:14:28;;;;;;;14.48;4.60;;;;;;;;;;5000976;28;20033;-95
2023/04/27 06:16:56;;;;;;;7.50;4.00;;;;;;;;;;5001284;28;20116;-95
2023/04/27 06:19:28;;;;;;;10.90;4.50;;;;;;;;;;5001478;28;20030;-95
2023/04/27 06:22:02;;;;;;;10.80;5.05;;;;;;;;;;5001505;28;20396;-94
2023/04/27 06:24:31;;;;;;;9.70;4.57;;;;;;;;;;5000972;28;20026;-95
2023/04/27 06:26:59;;;;;;;10.57;4.82;;;;;;;;;;5000422;28;20026;-95
2023/04/27 06:29:40;;;;;;;9.07;4.43;;;;;;;;;;5000907;28;20117;-94
2023/04/27 06:32:09;;;;;;;7.07;3.50;;;;;;;;;;5000875;28;20033;-94
2023/04/27 06:34:38;;;;;;;6.05;2.67;;;;;;;;;;5000918;28;20054;-95
2023/04/27 06:37:12;;;;;;;6.35;2.70;;;;;;;;;;5000706;28;20113;-93
2023/04/27 06:39:40;;;;;;;6.97;2.50;;;;;;;;;;5001147;28;20563;-94
2023/04/27 06:42:09;;;;;;;6.72;2.20;;;;;;;;;;5000367;28;20029;-94
2023/04/27 06:44:38;;;;;;;7.60;2.58;;;;;;;;;;5000581;28;20088;-93
2023/04/27 06:47:12;;;;;;;7.85;2.22;;;;;;;;;;5000184;28;20105;-95
2023/04/27 06:49:41;;;;;;;6.97;2.40;;;;;;;;;;5001304;28;20021;-94
2023/04/27 06:52:10;;;;;;;9.55;3.92;;;;;;;;;;5000596;28;20022;-95
2023/04/27 06:54:45;;;;;;;7.63;3.17;;;;;;;;;;5000333;28;20037;-95
2023/04/27 06:57:12;;;;;;;6.32;2.83;;;;;;;;;;5000266;28;20117;-95
2023/04/27 06:59:58;;;;;;;8.57;3.30;;;;;;;;;;4999998;28;20025;-94
2023/04/27 07:02:31;;;;;;;7.22;3.42;;;;;;;;;;4999995;28;20030;-94
2023/04/27 07:05:00;;;;;;;5.68;3.30;;;;;;;;;;4999825;28;20022;-94
2023/04/27 07:07:29;;;;;;;4.55;2.40;;;;;;;;;;4999977;28;20026;-94
2023/04/27 07:09:58;;;;;;;9.63;3.03;;;;;;;;;;5000114;28;20033;-94
2023/04/27 07:12:32;;;;;;;7.18;3.13;;;;;;;;;;4999697;28;20104;-94
2023/04/27 07:14:58;;;;;;;10.48;4.53;;;;;;;;;;4999836;28;20029;-93
2023/04/27 07:17:32;;;;;;;14.02;6.68;;;;;;;;;;5000295;28;20476;-94
2023/04/27 07:20:03;;;;;;;10.85;4.82;;;;;;;;;;5000050;28;20057;-94
2023/04/27 07:22:29;;;;;;;13.85;4.80;;;;;;;;;;4999707;28;20428;-95
2023/04/27 07:24:55;;;;;;;14.32;6.30;;;;;;;;;;5000179;28;20050;-95
2023/04/27 07:27:22;;;;;;;8.43;3.53;;;;;;;;;;4999751;28;20022;-95
2023/04/27 07:29:51;;;;;;;9.35;3.03;;;;;;;;;;4999888;28;20093;-95
2023/04/27 07:32:20;;;;;;;7.45;3.10;;;;;;;;;;4999941;28;20021;-94
2023/04/27 07:34:51;;;;;;;7.75;3.33;;;;;;;;;;5000216;28;20122;-95
2023/04/27 07:37:19;;;;;;;5.75;3.20;;;;;;;;;;4999508;28;20030;-95
2023/04/27 07:40:03;;;;;;;9.93;3.53;;;;;;;;;;4999116;28;20029;-95
2023/04/27 07:42:30;;;;;;;9.27;3.25;;;;;;;;;;4999977;28;20041;-95
2023/04/27 07:44:58;;;;;;;9.15;3.30;;;;;;;;;;4999421;28;20365;-94
2023/04/27 07:47:27;;;;;;;6.68;2.97;;;;;;;;;;4999446;28;20022;-95
2023/04/27 07:50:00;;;;;;;9.43;3.97;;;;;;;;;;4999453;28;20037;-94
2023/04/27 07:52:29;;;;;;;8.48;4.05;;;;;;;;;;4998894;28;20042;-95
2023/04/27 07:54:57;;;;;;;9.18;3.67;;;;;;;;;;4999349;28;20037;-94
2023/04/27 07:57:32;;;;;;;7.75;3.08;;;;;;;;;;4999517;28;20029;-95
2023/04/27 07:59:59;;;;;;;9.43;3.47;;;;;;;;;;4999491;28;20034;-95
2023/04/27 08:02:30;;;;;;;10.98;4.40;;;;;;;;;;4999187;28;20034;-95
2023/04/27 08:05:04;;;;;;;6.00;3.13;;;;;;;;;;4999147;28;20036;-96
2023/04/27 08:07:31;;;;;;;10.18;3.58;;;;;;;;;;4998851;28;20082;-94
2023/04/27 08:09:59;;;;;;;12.45;4.40;;;;;;;;;;4998819;28;20022;-96
2023/04/27 08:12:28;;;;;;;7.43;3.38;;;;;;;;;;4998773;28;20112;-95
2023/04/27 08:15:03;;;;;;;7.93;3.15;;;;;;;;;;4998897;28;20507;-95
2023/04/27 08:17:29;;;;;;;10.25;4.03;;;;;;;;;;4999128;28;20053;-95
2023/04/27 08:20:12;;;;;;;10.00;4.28;;;;;;;;;;4998555;28;20476;-96
2023/04/27 08:22:41;;;;;;;9.43;4.40;;;;;;;;;;4999585;28;20022;-96
2023/04/27 08:25:10;;;;;;;10.32;4.40;;;;;;;;;;4998042;28;20072;-95
2023/04/27 08:27:40;;;;;;;9.77;3.67;;;;;;;;;;4999247;28;20469;-94
2023/04/27 08:30:10;;;;;;;8.70;3.20;;;;;;;;;;4998970;28;20057;-94
2023/04/27 08:32:53;;;;;;;8.10;3.13;;;;;;;;;;4999078;28;20018;-95
2023/04/27 08:35:19;;;;;;;7.40;3.42;;;;;;;;;;4998839;28;20116;-95
2023/04/27 08:38:00;;;;;;;6.07;2.42;;;;;;;;;;4998605;28;20088;-95
2023/04/27 08:40:29;;;;;;;6.40;2.50;;;;;;;;;;4998517;28;20095;-95
2023/04/27 08:43:03;;;;;;;5.35;2.45;;;;;;;;;;4998338;28;20100;-95
2023/04/27 08:45:29;;;;;;;6.10;2.60;;;;;;;;;;4998392;28;20125;-95
2023/04/27 08:48:03;;;;;;;4.25;2.10;;;;;;;;;;4997889;28;20485;-95
2023/04/27 08:50:30;;;;;;;5.75;2.40;;;;;;;;;;4998125;28;20058;-94
2023/04/27 08:52:59;;;;;;;6.75;2.55;;;;;;;;;;4997937;28;20528;-96
2023/04/27 08:55:31;;;;;;;5.07;2.22;;;;;;;;;;4998001;28;20503;-95
2023/04/27 08:58:00;;;;;;;;;;;;;;;;;;4998954;28;20033;-96
2023/04/27 09:00:40;;;;;;;13.90;2.78;;;;;;;;;;4998748;28;19905;-95
2023/04/27 09:03:20;;;;;;;4.75;2.67;;;;;;;;;;4997713;28;20555;-95
2023/04/27 09:05:50;;;;;;;6.95;3.25;;;;;;;;;;4997339;28;20034;-95
2023/04/27 09:08:30;;;;;;;5.47;2.63;;;;;;;;;;4997801;28;20507;-95
2023/04/27 09:10:59;;;;;;;8.60;3.33;;;;;;;;;;4998076;28;20018;-96
2023/04/27 09:16:31;;;;;;;7.63;2.58;;;;;;;;;;5004629;28;20026;-96
2023/04/27 09:19:00;;;;;;;5.22;2.53;;;;;;;;;;4997584;28;20075;-95
2023/04/27 09:21:50;;;;;;;8.27;3.30;;;;;;;;;;4997813;28;20164;-95
2023/04/27 09:24:19;;;;;;;6.25;2.47;;;;;;;;;;4997649;28;20022;-95
2023/04/27 09:26:53;;;;;;;11.02;2.90;;;;;;;;;;4997500;28;20025;-95
2023/04/27 09:29:31;;;;;;;7.15;3.35;;;;;;;;;;4997585;28;20408;-94
2023/04/27 09:32:00;;;;;;;7.47;2.78;;;;;;;;;;4997166;28;20022;-95
2023/04/27 09:34:29;;;;;;;6.80;3.13;;;;;;;;;;4997280;28;20029;-93
2023/04/27 09:37:00;;;;;;;8.52;2.80;;;;;;;;;;4998119;28;20049;-96
2023/04/27 09:39:29;;;;;;;6.47;2.40;;;;;;;;;;4997524;28;20030;-93
2023/04/27 09:42:03;;;;;;;5.80;2.53;;;;;;;;;;4997526;28;20030;-95
2023/04/27 09:44:30;;;;;;;9.18;4.05;;;;;;;;;;4997282;28;20025;-95
2023/04/27 09:47:00;;;;;;;6.68;3.63;;;;;;;;;;4997366;28;20022;-94
2023/04/27 09:49:30;;;;;;;6.88;3.13;;;;;;;;;;4997594;28;20490;-95
2023/04/27 09:52:12;;;;;;;5.65;2.97;;;;;;;;;;4997361;28;20022;-94
2023/04/27 09:54:41;;;;;;;8.20;2.50;;;;;;;;;;4997457;28;20064;-95
2023/04/27 09:57:10;;;;;;;5.82;2.45;;;;;;;;;;4997694;28;20037;-95
2023/04/27 09:59:58;;;;;;;8.75;2.42;;;;;;;;;;4997533;28;20029;-94
2023/04/27 10:02:31;;;;;;;8.80;2.67;;;;;;;;;;4997013;28;20030;-96
2023/04/27 10:05:22;;;;;;;3.95;2.22;;;;;;;;;;4997585;28;20030;-95
2023/04/27 10:07:52;;;;;;;6.50;2.80;;;;;;;;;;4997659;28;20073;-95
2023/04/27 10:10:20;;;;;;;5.50;2.92;;;;;;;;;;4996886;28;20080;-94
2023/04/27 10:13:19;;;;;;;6.88;2.25;;;;;;;;;;4997211;28;20018;-95
2023/04/27 10:15:50;;;;;;;6.65;3.17;;;;;;;;;;4992125;28;20369;-95
2023/04/27 10:18:31;;;;;;;7.78;2.88;;;;;;;;;;4997078;28;20106;-96
2023/04/27 10:21:09;;;;;;;9.23;2.70;;;;;;;;;;4997102;28;20371;-94
2023/04/27 10:23:50;;;;;;;5.80;2.50;;;;;;;;;;4997232;28;20030;-95
2023/04/27 10:26:29;;;;;;;7.07;2.27;;;;;;;;;;4996855;28;20040;-96
2023/04/27 10:31:49;;;;;;;3.45;2.00;;;;;;;;;;5004005;28;20041;-95
2023/04/27 10:34:23;;;;;;;6.18;2.17;;;;;;;;;;4997181;28;20029;-94
2023/04/27 10:42:50;;;;;;;6.75;2.38;;;;;;;;;;5003755;28;20168;-95
2023/04/27 10:45:28;;;;;;;6.47;1.90;;;;;;;;;;4997182;28;20030;-94
2023/04/27 10:48:02;;;;;;;6.15;2.20;;;;;;;;;;4999176;28;20022;-96
2023/04/27 10:50:31;;;;;;;5.38;1.98;;;;;;;;;;5000396;28;20018;-94
2023/04/27 10:53:14;;;;;;;3.53;1.52;;;;;;;;;;5000156;28;20111;-96
2023/04/27 10:55:40;;;;;;;3.40;1.77;;;;;;;;;;5000434;28;20036;-94
2023/04/27 10:58:09;;;;;;;3.13;1.58;;;;;;;;;;5000532;28;20076;-94
2023/04/27 11:00:43;;;;;;;3.47;1.80;;;;;;;;;;5000364;28;20392;-95
2023/04/27 11:03:32;;;;;;;3.55;1.90;;;;;;;;;;5000066;28;20084;-94
2023/04/27 11:06:02;;;;;;;4.40;1.92;;;;;;;;;;4995371;28;20042;-95
2023/04/27 11:08:32;;;;;;;6.53;2.30;;;;;;;;;;5000140;28;20072;-94
2023/04/27 11:11:00;;;;;;;6.93;2.33;;;;;;;;;;5000320;28;20064;-95
2023/04/27 11:13:31;;;;;;;5.28;2.33;;;;;;;;;;5000706;28;20033;-96
2023/04/27 11:16:00;;;;;;;5.53;1.98;;;;;;;;;;4999965;28;20026;-96
2023/04/27 11:18:29;;;;;;;4.72;2.13;;;;;;;;;;4999748;28;20132;-96
2023/04/27 11:21:11;;;;;;;5.95;2.42;;;;;;;;;;4999988;28;20061;-95
2023/04/27 11:23:40;;;;;;;3.50;1.58;;;;;;;;;;4999905;28;20026;-96
2023/04/27 11:26:09;;;;;;;6.72;2.05;;;;;;;;;;5000545;28;20121;-94
2023/04/27 11:28:39;;;;;;;6.28;2.10;;;;;;;;;;5000656;28;20103;-95
2023/04/27 11:31:13;;;;;;;4.85;1.65;;;;;;;;;;4999633;28;20045;-94
2023/04/27 11:33:50;;;;;;;5.20;1.40;;;;;;;;;;5000168;28;20025;-94
2023/04/27 11:36:25;;;;;;;4.70;1.80;;;;;;;;;;5000085;28;20116;-94
2023/04/27 11:38:59;;;;;;;5.88;1.95;;;;;;;;;;4999305;28;20029;-95
2023/04/27 11:41:59;;;;;;;4.38;1.90;;;;;;;;;;4999559;28;20026;-95
2023/04/27 11:44:32;;;;;;;4.22;1.70;;;;;;;;;;5014982;28;20030;-93
2023/04/27 11:47:02;;;;;;;3.08;1.55;;;;;;;;;;4999391;28;20025;-95
2023/04/27 11:49:31;;;;;;;3.25;1.42;;;;;;;;;;4999666;28;20018;-95
2023/04/27 11:52:00;;;;;;;4.28;1.75;;;;;;;;;;4999901;28;20464;-94
2023/04/27 11:54:30;;;;;;;7.20;2.47;;;;;;;;;;4999077;28;20057;-95
2023/04/27 11:57:04;;;;;;;9.32;5.20;;;;;;;;;;4999588;28;20037;-95
2023/04/27 11:59:31;;;;;;;8.00;3.22;;;;;;;;;;4997941;28;20030;-95
2023/04/27 12:02:00;;;;;;;5.22;2.25;;;;;;;;;;4998990;28;20124;-95
2023/04/27 12:04:29;;;;;;;4.30;2.03;;;;;;;;;;4997996;28;20029;-95
2023/04/27 12:07:02;;;;;;;4.45;1.98;;;;;;;;;;4999107;28;20050;-94
2023/04/27 12:09:33;;;;;;;5.22;2.33;;;;;;;;;;4998922;28;20022;-96
2023/04/27 12:12:03;;;;;;;4.77;1.63;;;;;;;;;;4998853;28;20017;-95
2023/04/27 12:14:31;;;;;;;4.70;1.88;;;;;;;;;;4998606;28;20053;-95
2023/04/27 12:17:00;;;;;;;6.15;2.83;;;;;;;;;;4999201;28;20080;-95
2023/04/27 12:19:36;;;;;;;7.35;2.20;;;;;;;;;;4998979;28;20025;-94
2023/04/27 12:22:03;;;;;;;5.07;2.10;;;;;;;;;;4998651;28;20029;-94
2023/04/27 12:24:32;;;;;;;6.00;2.28;;;;;;;;;;4999503;28;20116;-95
2023/04/27 12:27:02;;;;;;;2.85;1.95;;;;;;;;;;4998616;28;20376;-96
2023/04/27 12:29:31;;;;;;;5.38;1.75;;;;;;;;;;4999019;28;20368;-94
2023/04/27 12:32:12;;;;;;;3.90;1.98;;;;;;;;;;4998923;28;20018;-94
2023/04/27 12:34:41;;;;;;;7.93;3.63;;;;;;;;;;4998327;28;20059;-96
2023/04/27 12:37:10;;;;;;;10.80;4.53;;;;;;;;;;4998220;28;20056;-95
2023/04/27 12:39:39;;;;;;;3.83;2.25;;;;;;;;;;4998414;28;20026;-94
2023/04/27 12:42:13;;;;;;;1.95;1.42;;;;;;;;;;4998207;28;20392;-96
2023/04/27 12:44:40;;;;;;;5.40;2.33;;;;;;;;;;4998876;28;20469;-94
2023/04/27 12:47:13;;;;;;;6.82;2.30;;;;;;;;;;4998291;28;20050;-95
2023/04/27 12:49:40;;;;;;;6.82;2.50;;;;;;;;;;4998726;28;20025;-96
2023/04/27 12:52:11;;;;;;;4.72;1.70;;;;;;;;;;4998141;28;20026;-94
2023/04/27 12:54:50;;;;;;;7.37;2.60;;;;;;;;;;4998044;28;20022;-96
2023/04/27 12:57:23;;;;;;;8.32;3.15;;;;;;;;;;4998320;28;20045;-94
2023/04/27 12:59:52;;;;;;;2.88;1.48;;;;;;;;;;4998486;28;20380;-95
2023/04/27 13:02:21;;;;;;;5.35;2.20;;;;;;;;;;4997997;28;20088;-95
2023/04/27 13:04:49;;;;;;;8.32;4.28;;;;;;;;;;4998143;28;20026;-95
2023/04/27 13:07:23;;;;;;;7.97;2.35;;;;;;;;;;4998131;28;20471;-95
2023/04/27 13:09:52;;;;;;;3.85;1.75;;;;;;;;;;4997817;28;20018;-95
2023/04/27 13:12:21;;;;;;;6.95;3.15;;;;;;;;;;4997302;28;20116;-95
2023/04/27 13:14:56;;;;;;;6.20;2.55;;;;;;;;;;4998067;28;20060;-94
2023/04/27 13:17:23;;;;;;;4.63;2.45;;;;;;;;;;4997647;28;20029;-95
2023/04/27 13:19:51;;;;;;;6.03;1.73;;;;;;;;;;4997519;28;20048;-96
2023/04/27 13:22:20;;;;;;;5.43;1.90;;;;;;;;;;4997558;28;20029;-95
2023/04/27 13:24:59;;;;;;;4.55;2.13;;;;;;;;;;4997826;28;20025;-95
2023/04/27 13:27:33;;;;;;;4.63;1.60;;;;;;;;;;4997948;28;20527;-95
2023/04/27 13:29:59;;;;;;;3.58;2.03;;;;;;;;;;4997688;28;20029;-95
2023/04/27 13:32:30;;;;;;;4.85;1.48;;;;;;;;;;4997648;28;20441;-95
2023/04/27 13:35:04;;;;;;;4.03;1.45;;;;;;;;;;4997675;28;20030;-94
2023/04/27 13:37:30;;;;;;;3.97;1.55;;;;;;;;;;4997951;28;20030;-95
2023/04/27 13:40:01;;;;;;;4.05;1.50;;;;;;;;;;4997235;28;20428;-94
2023/04/27 13:42:40;;;;;;;3.22;1.42;;;;;;;;;;4997774;28;20113;-95
2023/04/27 13:45:14;;;;;;;7.68;2.35;;;;;;;;;;4997428;28;20113;-95
2023/04/27 13:47:42;;;;;;;5.15;2.70;;;;;;;;;;4997450;28;20500;-95
2023/04/27 13:50:39;;;;;;;;;;;;;;;;;;;;;
2023/04/27 13:53:01;;;;;;;4.38;1.98;;;;;;;;;;5012895;28;20117;-94
2023/04/27 13:55:30;;;;;;;6.60;2.22;;;;;;;;;;4997365;28;20066;-94
2023/04/27 13:58:13;;;;;;;5.38;1.65;;;;;;;;;;4997129;28;20400;-96
2023/04/27 14:00:41;;;;;;;5.38;1.70;;;;;;;;;;4997176;28;20117;-96
2023/04/27 14:03:10;;;;;;;3.78;1.30;;;;;;;;;;4997439;28;20500;-94
2023/04/27 14:05:53;;;;;;;4.43;1.45;;;;;;;;;;4996957;28;20034;-95
2023/04/27 14:08:22;;;;;;;6.93;2.38;;;;;;;;;;4997170;28;20061;-94
2023/04/27 14:10:50;;;;;;;4.75;1.98;;;;;;;;;;4997036;28;20018;-96
2023/04/27 14:13:20;;;;;;;4.10;1.63;;;;;;;;;;4997490;28;20021;-95
2023/04/27 14:15:49;;;;;;;4.47;1.20;;;;;;;;;;4997106;28;20026;-95
2023/04/27 14:18:23;;;;;;;6.55;1.70;;;;;;;;;;4996966;28;20030;-95
2023/04/27 14:20:53;;;;;;;2.85;1.67;;;;;;;;;;4997537;28;20033;-95
2023/04/27 14:23:22;;;;;;;2.97;1.27;;;;;;;;;;5001241;28;20033;-94
2023/04/27 14:25:50;;;;;;;3.40;1.20;;;;;;;;;;5001188;28;20076;-95
2023/04/27 14:28:17;;;;;;;6.30;1.60;;;;;;;;;;5000678;28;20018;-94
2023/04/27 14:30:43;;;;;;;2.83;1.45;;;;;;;;;;5000745;28;20511;-94
2023/04/27 14:33:12;;;;;;;2.97;1.75;;;;;;;;;;5000769;28;20535;-95
2023/04/27 14:35:40;;;;;;;7.93;1.90;;;;;;;;;;5000588;28;20022;-95
2023/04/27 14:38:33;;;;;;;5.63;1.70;;;;;;;;;;5001762;28;20033;-94
2023/04/27 14:41:02;;;;;;;4.88;2.22;;;;;;;;;;5000958;28;20033;-96
2023/04/27 14:43:30;;;;;;;5.05;1.65;;;;;;;;;;5001111;28;20057;-95
2023/04/27 14:46:04;;;;;;;7.15;1.80;;;;;;;;;;5000470;28;20111;-95
2023/04/27 14:48:31;;;;;;;4.72;1.88;;;;;;;;;;5001401;28;20521;-95
2023/04/27 14:51:00;;;;;;;6.45;2.13;;;;;;;;;;5000916;28;20105;-94
2023/04/27 14:53:33;;;;;;;2.45;1.40;;;;;;;;;;5000297;28;20404;-95
2023/04/27 14:56:02;;;;;;;8.07;1.75;;;;;;;;;;5000188;28;20026;-96
2023/04/27 14:58:31;;;;;;;5.78;1.90;;;;;;;;;;5000088;28;20506;-94
2023/04/27 15:01:01;;;;;;;4.18;1.85;;;;;;;;;;5000954;28;20391;-95
2023/04/27 15:03:31;;;;;;;9.25;2.00;;;;;;;;;;5000938;28;20474;-95
2023/04/27 15:06:00;;;;;;;3.63;1.50;;;;;;;;;;4999861;28;20480;-95
2023/04/27 15:08:49;;;;;;;4.90;1.75;;;;;;;;;;5000470;28;20021;-96
2023/04/27 15:11:23;;;;;;;12.68;4.50;;;;;;;;;;5000654;28;20526;-95
2023/04/27 15:13:52;;;;;;;10.73;4.35;;;;;;;;;;4999991;28;20022;-94
2023/04/27 15:16:21;;;;;;;7.05;3.25;;;;;;;;;;5000176;28;20033;-95
2023/04/27 15:19:03;;;;;;;9.48;4.22;;;;;;;;;;4999749;28;20026;-95
2023/04/27 15:21:33;;;;;;;9.77;2.63;;;;;;;;;;5000278;28;20109;-95
2023/04/27 15:24:01;;;;;;;16.15;7.07;;;;;;;;;;4999645;28;20026;-94
2023/04/27 15:26:30;;;;;;;13.52;6.13;;;;;;;;;;4999715;28;20030;-96
2023/04/27 15:29:04;;;;;;;15.18;5.28;;;;;;;;;;4999994;28;20376;-95
2023/04/27 15:31:30;;;;;;;11.88;4.82;;;;;;;;;;4999500;28;20026;-94
2023/04/27 15:34:01;;;;;;;9.23;4.45;;;;;;;;;;4999343;28;20014;-95
2023/04/27 15:36:30;;;;;;;13.23;4.22;;;;;;;;;;4999343;28;20049;-96